Time;durP1;ratioP1;P1;durP2;ratioP2;P2;SDS_P1;SDS_P2;PMS_P1;PMS_P2;Temp;Humidity;BMP_temperature;BMP_pressure;BME280_temperature;BME280_humidity;BME280_pressure;Samples;Min_cycle;Max_cycle;Signal;HPM_P1;HPM_P2
2021/06/02 09:42:27;;;;;;;;;13.25;12.00;;;;;;;;3544761;39;1406179;-72
2021/06/02 09:45:04;;;;;;;;;16.50;12.75;;;;;;;;3573592;39;114926;-75
2021/06/02 09:47:40;;;;;;;;;51.00;40.00;;;;;;;;3569773;39;112334;-75
2021/06/02 09:50:07;;;;;;;;;18.00;16.50;;;;;;;;3569504;39;113240;-74
2021/06/02 09:52:38;;;;;;;;;12.00;11.75;;;;;;;;3571283;39;113852;-74
2021/06/02 09:55:10;;;;;;;;;11.00;11.00;;;;;;;;3571497;39;112006;-73
2021/06/02 09:57:38;;;;;;;;;11.50;10.00;;;;;;;;3569753;39;113302;-74
2021/06/02 10:00:04;;;;;;;;;9.00;9.00;;;;;;;;3571480;39;115305;-75
2021/06/02 10:02:30;;;;;;;;;9.50;9.50;;;;;;;;3574169;39;112152;-74
2021/06/02 10:05:00;;;;;;;;;14.75;14.25;;;;;;;;3569404;39;112923;-74
2021/06/02 10:07:26;;;;;;;;;10.00;9.00;;;;;;;;3571753;39;112040;-73
2021/06/02 10:09:52;;;;;;;;;9.50;9.00;;;;;;;;3571288;39;113507;-75
2021/06/02 10:12:18;;;;;;;;;10.25;8.25;;;;;;;;3571011;39;114432;-74
2021/06/02 10:14:55;;;;;;;;;10.75;10.75;;;;;;;;3571200;39;111850;-74
2021/06/02 10:17:24;;;;;;;;;11.25;10.00;;;;;;;;3571398;39;113817;-74
2021/06/02 10:19:50;;;;;;;;;9.00;8.00;;;;;;;;3571047;39;113753;-74
2021/06/02 10:22:21;;;;;;;;;11.00;10.00;;;;;;;;3571566;39;111927;-74
2021/06/02 10:24:48;;;;;;;;;9.75;9.00;;;;;;;;3573440;39;113241;-74
2021/06/02 10:27:14;;;;;;;;;8.00;8.00;;;;;;;;3571470;39;111903;-74
2021/06/02 10:29:41;;;;;;;;;7.00;6.25;;;;;;;;3571307;39;113131;-73
2021/06/02 10:32:08;;;;;;;;;8.00;8.00;;;;;;;;3568978;39;115473;-74
2021/06/02 10:34:34;;;;;;;;;8.50;7.50;;;;;;;;3571174;39;112503;-72
2021/06/02 10:37:00;;;;;;;;;8.00;8.00;;;;;;;;3571379;39;113475;-75
2021/06/02 10:39:27;;;;;;;;;8.00;7.75;;;;;;;;3570882;39;113948;-74
2021/06/02 10:41:57;;;;;;;;;8.00;8.00;;;;;;;;3571295;39;111859;-74
2021/06/02 10:44:27;;;;;;;;;8.00;8.00;;;;;;;;3571288;39;113541;-74
2021/06/02 10:46:54;;;;;;;;;9.25;8.00;;;;;;;;3573427;39;113813;-72
2021/06/02 10:49:27;;;;;;;;;7.00;7.00;;;;;;;;3571361;39;113762;-72
2021/06/02 10:51:54;;;;;;;;;6.75;6.75;;;;;;;;3567544;39;114017;-72
2021/06/02 10:54:28;;;;;;;;;6.75;6.75;;;;;;;;3564606;39;111958;-72
2021/06/02 10:57:14;;;;;;;;;10.00;7.00;;;;;;;;3564577;39;113227;-72
2021/06/02 10:59:41;;;;;;;;;6.25;6.25;;;;;;;;3560341;39;114400;-72
2021/06/02 11:02:08;;;;;;;;;7.00;7.00;;;;;;;;3562378;39;114342;-73
2021/06/02 11:04:36;;;;;;;;;8.25;8.25;;;;;;;;3564595;39;112997;-73
2021/06/02 11:07:18;;;;;;;;;7.00;7.00;;;;;;;;3564328;39;113887;-73
2021/06/02 11:09:51;;;;;;;;;8.00;6.00;;;;;;;;3565909;39;111822;-73
2021/06/02 11:12:18;;;;;;;;;7.75;7.25;;;;;;;;3563803;39;113885;-73
2021/06/02 11:14:44;;;;;;;;;9.00;7.25;;;;;;;;3564235;39;111783;-74
2021/06/02 11:17:11;;;;;;;;;5.75;5.75;;;;;;;;3564542;39;113176;-73
2021/06/02 11:19:41;;;;;;;;;6.00;6.00;;;;;;;;3559124;39;114383;-72
2021/06/02 11:22:08;;;;;;;;;7.75;6.50;;;;;;;;3561834;39;111854;-73
2021/06/02 11:24:35;;;;;;;;;10.00;8.00;;;;;;;;3563820;39;114433;-72
2021/06/02 11:27:26;;;;;;;;;6.75;6.75;;;;;;;;3565116;39;114000;-72
2021/06/02 11:30:11;;;;;;;;;8.50;8.50;;;;;;;;3566443;39;112551;-73
2021/06/02 11:32:51;;;;;;;;;7.00;7.00;;;;;;;;3569845;39;113246;-72
2021/06/02 11:35:18;;;;;;;;;7.00;7.00;;;;;;;;3565546;39;113607;-73
2021/06/02 11:37:44;;;;;;;;;7.00;7.00;;;;;;;;3564870;39;113517;-72
2021/06/02 11:40:13;;;;;;;;;8.25;8.00;;;;;;;;3565837;39;113802;-72
2021/06/02 11:42:42;;;;;;;;;8.00;8.00;;;;;;;;3564763;39;111844;-72
2021/06/02 11:45:09;;;;;;;;;9.00;8.25;;;;;;;;3562342;39;113452;-72
2021/06/02 11:47:36;;;;;;;;;5.75;5.75;;;;;;;;3566938;39;114070;-72
2021/06/02 11:50:04;;;;;;;;;8.25;8.25;;;;;;;;3566051;39;112004;-72
2021/06/02 11:52:32;;;;;;;;;8.75;8.00;;;;;;;;3566325;39;113213;-72
2021/06/02 11:54:58;;;;;;;;;10.75;8.25;;;;;;;;3568531;39;111928;-72
2021/06/02 11:57:26;;;;;;;;;9.50;9.50;;;;;;;;3565301;39;113193;-75
2021/06/02 11:59:52;;;;;;;;;6.00;6.00;;;;;;;;3565697;39;114017;-73
2021/06/02 12:02:18;;;;;;;;;7.50;6.50;;;;;;;;3567880;39;113842;-73
2021/06/02 12:04:45;;;;;;;;;8.00;8.00;;;;;;;;3564932;39;112936;-72
2021/06/02 12:07:20;;;;;;;;;8.00;8.00;;;;;;;;3565796;39;114722;-72
2021/06/02 12:09:51;;;;;;;;;9.25;8.50;;;;;;;;3567345;39;112200;-72
2021/06/02 12:12:17;;;;;;;;;9.00;9.00;;;;;;;;3566307;39;113445;-71
2021/06/02 12:14:51;;;;;;;;;8.25;8.25;;;;;;;;3568709;39;113785;-74
2021/06/02 12:17:17;;;;;;;;;7.25;7.25;;;;;;;;3567426;39;113271;-72
2021/06/02 12:19:43;;;;;;;;;8.00;7.75;;;;;;;;3562931;39;113348;-71
2021/06/02 12:22:10;;;;;;;;;8.25;7.00;;;;;;;;3566788;39;112181;-72
2021/06/02 12:24:36;;;;;;;;;9.75;9.75;;;;;;;;3567784;39;113473;-72
2021/06/02 12:27:04;;;;;;;;;7.50;7.25;;;;;;;;3566683;39;113752;-73
2021/06/02 12:29:31;;;;;;;;;8.00;7.75;;;;;;;;3564146;39;111920;-72
2021/06/02 12:32:00;;;;;;;;;6.50;6.50;;;;;;;;3564194;39;113487;-73
2021/06/02 12:34:27;;;;;;;;;4.00;4.00;;;;;;;;3563816;39;113863;-72
2021/06/02 12:36:54;;;;;;;;;8.00;7.00;;;;;;;;3566873;39;112227;-72
2021/06/02 12:39:21;;;;;;;;;9.75;9.00;;;;;;;;3561835;39;114053;-72
2021/06/02 12:41:49;;;;;;;;;8.00;8.00;;;;;;;;3564374;39;112480;-73
2021/06/02 12:44:21;;;;;;;;;7.75;7.75;;;;;;;;3562674;39;113221;-73
2021/06/02 12:46:58;;;;;;;;;7.50;7.50;;;;;;;;3564562;39;113800;-72
2021/06/02 12:49:24;;;;;;;;;7.25;5.00;;;;;;;;3559395;39;112449;-70
2021/06/02 12:51:54;;;;;;;;;6.00;6.00;;;;;;;;3562527;39;113540;-70
2021/06/02 12:56:23;;;;;;;;;6.33;6.33;;;;;;;;3546665;39;1469863;-72
2021/06/02 12:58:53;;;;;;;;;5.75;5.75;;;;;;;;3576433;39;113805;-72
2021/06/02 13:01:20;;;;;;;;;5.50;5.50;;;;;;;;3576791;39;111931;-72
2021/06/02 13:03:47;;;;;;;;;10.75;9.75;;;;;;;;3575990;39;113189;-72
2021/06/02 13:06:15;;;;;;;;;6.00;6.00;;;;;;;;3576470;39;113991;-72
2021/06/02 13:08:42;;;;;;;;;7.75;7.75;;;;;;;;3575260;39;111842;-73
2021/06/02 13:11:08;;;;;;;;;7.00;6.00;;;;;;;;3576756;39;112546;-73
2021/06/02 13:13:36;;;;;;;;;8.00;8.00;;;;;;;;3575137;39;114385;-72
2021/06/02 13:16:04;;;;;;;;;8.75;8.00;;;;;;;;3578603;39;112253;-72
2021/06/02 13:18:32;;;;;;;;;6.00;6.00;;;;;;;;3572415;39;113033;-71
2021/06/02 13:21:08;;;;;;;;;7.50;7.50;;;;;;;;3576308;39;112336;-73
2021/06/02 13:23:35;;;;;;;;;9.00;7.25;;;;;;;;3577474;39;113309;-73
2021/06/02 13:26:02;;;;;;;;;7.75;7.75;;;;;;;;3576876;39;113797;-72
2021/06/02 13:28:28;;;;;;;;;7.75;7.75;;;;;;;;3575324;39;112182;-73
2021/06/02 13:30:57;;;;;;;;;6.25;6.25;;;;;;;;3576455;39;113526;-73
2021/06/02 13:33:23;;;;;;;;;6.00;6.00;;;;;;;;3576379;39;114331;-72
2021/06/02 13:36:00;;;;;;;;;5.50;5.50;;;;;;;;3576946;39;111871;-73
2021/06/02 13:38:26;;;;;;;;;6.50;6.50;;;;;;;;3579095;39;113177;-72
2021/06/02 13:40:53;;;;;;;;;6.75;5.75;;;;;;;;3576382;39;112643;-71
2021/06/02 13:43:19;;;;;;;;;6.50;6.50;;;;;;;;3576265;39;113236;-73
2021/06/02 13:45:47;;;;;;;;;7.33;5.67;;;;;;;;3574951;39;112868;-72
2021/06/02 13:48:28;;;;;;;;;6.25;6.25;;;;;;;;3575864;39;111856;-72
2021/06/02 13:51:13;;;;;;;;;4.50;4.50;;;;;;;;3576483;39;113019;-72
2021/06/02 13:53:54;;;;;;;;;6.00;5.25;;;;;;;;3574284;39;113791;-74
2021/06/02 13:56:20;;;;;;;;;7.00;5.67;;;;;;;;3573963;39;112255;-72
2021/06/02 13:58:46;;;;;;;;;5.25;5.25;;;;;;;;3576219;39;113476;-70
2021/06/02 14:01:24;;;;;;;;;6.50;6.50;;;;;;;;3579733;39;114010;-73
2021/06/02 14:03:51;;;;;;;;;3.67;3.67;;;;;;;;3576311;39;113279;-70
2021/06/02 14:06:17;;;;;;;;;5.75;5.75;;;;;;;;3569867;39;112947;-73
2021/06/02 14:08:43;;;;;;;;;6.50;6.50;;;;;;;;3570869;39;111741;-76
2021/06/02 14:11:09;;;;;;;;;6.00;6.00;;;;;;;;3571601;39;113266;-72
2021/06/02 14:13:35;;;;;;;;;8.67;6.00;;;;;;;;3570287;39;114253;-74
2021/06/02 14:16:01;;;;;;;;;6.00;6.00;;;;;;;;3572330;39;111990;-73
2021/06/02 14:18:28;;;;;;;;;6.25;5.25;;;;;;;;3569646;39;113209;-73
2021/06/02 14:20:55;;;;;;;;;6.75;6.00;;;;;;;;3568444;39;113729;-72
2021/06/02 14:23:21;;;;;;;;;6.25;6.25;;;;;;;;3571741;39;112289;-72
2021/06/02 14:25:47;;;;;;;;;5.25;4.50;;;;;;;;3568668;39;114033;-72
2021/06/02 14:28:13;;;;;;;;;5.00;5.00;;;;;;;;3569512;39;112000;-72
2021/06/02 14:30:39;;;;;;;;;5.33;4.67;;;;;;;;3568204;39;113642;-72
2021/06/02 14:33:05;;;;;;;;;5.00;5.00;;;;;;;;3567561;39;112805;-73
2021/06/02 14:35:31;;;;;;;;;5.25;5.25;;;;;;;;3570224;39;112426;-72
2021/06/02 14:38:00;;;;;;;;;5.25;5.25;;;;;;;;3570418;39;113177;-71
2021/06/02 14:40:27;;;;;;;;;6.00;6.00;;;;;;;;3565427;39;112836;-72
2021/06/02 14:42:53;;;;;;;;;4.33;4.33;;;;;;;;3569639;39;111778;-72
2021/06/02 14:45:19;;;;;;;;;4.33;4.33;;;;;;;;3571905;39;113925;-72
2021/06/02 14:47:45;;;;;;;;;5.00;5.00;;;;;;;;3569186;39;111879;-72
2021/06/02 14:50:11;;;;;;;;;6.67;5.67;;;;;;;;3570054;39;113465;-72
2021/06/02 14:52:37;;;;;;;;;6.33;5.33;;;;;;;;3568423;39;113849;-73
2021/06/02 14:55:05;;;;;;;;;4.33;4.33;;;;;;;;3570055;39;111918;-72
2021/06/02 14:57:31;;;;;;;;;6.00;5.00;;;;;;;;3568547;39;113233;-72
2021/06/02 14:59:57;;;;;;;;;5.67;4.00;;;;;;;;3568559;39;113816;-71
2021/06/02 15:02:23;;;;;;;;;3.33;3.33;;;;;;;;3566781;39;111930;-72
2021/06/02 15:04:51;;;;;;;;;3.00;3.00;;;;;;;;3569581;39;112948;-72
2021/06/02 15:07:17;;;;;;;;;5.00;5.00;;;;;;;;3571778;39;111901;-72
2021/06/02 15:09:43;;;;;;;;;6.33;5.67;;;;;;;;3568954;39;113529;-72
2021/06/02 15:12:11;;;;;;;;;5.67;5.67;;;;;;;;3569585;39;114393;-72
2021/06/02 15:14:37;;;;;;;;;7.00;6.00;;;;;;;;3568659;39;112164;-72
2021/06/02 15:17:04;;;;;;;;;6.00;6.00;;;;;;;;3566262;39;112936;-72
2021/06/02 15:19:31;;;;;;;;;8.00;6.33;;;;;;;;3569034;39;114382;-72
2021/06/02 15:21:57;;;;;;;;;7.00;7.00;;;;;;;;3568791;39;112027;-72
2021/06/02 15:24:24;;;;;;;;;6.00;5.67;;;;;;;;3562728;39;112981;-72
2021/06/02 15:26:51;;;;;;;;;5.25;5.25;;;;;;;;3571598;39;114350;-72
2021/06/02 15:29:38;;;;;;;;;6.00;6.00;;;;;;;;3569557;39;113202;-73
2021/06/02 15:32:05;;;;;;;;;6.33;6.33;;;;;;;;3567964;39;113941;-72
2021/06/02 15:34:31;;;;;;;;;4.67;4.67;;;;;;;;3570236;39;111861;-72
2021/06/02 15:36:58;;;;;;;;;6.33;5.67;;;;;;;;3568566;39;113178;-73
2021/06/02 15:39:25;;;;;;;;;7.00;5.67;;;;;;;;3566094;39;112803;-72
2021/06/02 15:41:52;;;;;;;;;7.33;6.67;;;;;;;;3569342;39;111753;-72
2021/06/02 15:44:19;;;;;;;;;5.00;5.00;;;;;;;;3569531;39;113203;-72
2021/06/02 15:46:45;;;;;;;;;6.33;5.67;;;;;;;;3568782;39;115090;-71
2021/06/02 15:49:11;;;;;;;;;7.00;7.00;;;;;;;;3573131;39;111916;-72
2021/06/02 15:51:38;;;;;;;;;7.00;7.00;;;;;;;;3566237;39;113164;-73
2021/06/02 15:54:07;;;;;;;;;7.33;5.67;;;;;;;;3568596;39;111988;-73
2021/06/02 15:56:36;;;;;;;;;5.00;5.00;;;;;;;;3568901;39;113800;-73
2021/06/02 15:59:03;;;;;;;;;5.00;5.00;;;;;;;;3569732;39;113860;-72
2021/06/02 16:01:31;;;;;;;;;3.67;3.67;;;;;;;;3568721;39;111872;-72
2021/06/02 16:03:57;;;;;;;;;5.00;4.00;;;;;;;;3569637;39;113033;-71
2021/06/02 16:06:23;;;;;;;;;6.00;5.00;;;;;;;;3568703;39;114298;-72
2021/06/02 16:08:49;;;;;;;;;4.33;4.33;;;;;;;;3564350;39;111938;-72
2021/06/02 16:11:15;;;;;;;;;4.67;4.67;;;;;;;;3571731;39;113824;-73
2021/06/02 16:13:41;;;;;;;;;5.00;5.00;;;;;;;;3567287;39;111938;-72
2021/06/02 16:16:07;;;;;;;;;5.33;5.33;;;;;;;;3570060;39;112849;-72
2021/06/02 16:18:35;;;;;;;;;5.00;5.00;;;;;;;;3567914;39;114085;-73
2021/06/02 16:21:01;;;;;;;;;6.33;5.67;;;;;;;;3569940;39;112425;-72
2021/06/02 16:23:27;;;;;;;;;5.00;5.00;;;;;;;;3568614;39;113476;-72
2021/06/02 16:25:53;;;;;;;;;6.00;5.00;;;;;;;;3569009;39;114182;-74
2021/06/02 16:28:22;;;;;;;;;4.67;4.67;;;;;;;;3569001;39;112157;-73
2021/06/02 16:30:48;;;;;;;;;6.33;4.33;;;;;;;;3569061;39;113573;-72
2021/06/02 16:33:14;;;;;;;;;4.00;4.00;;;;;;;;3571451;39;113725;-72
2021/06/02 16:35:42;;;;;;;;;3.00;3.00;;;;;;;;3567496;39;112339;-73
2021/06/02 16:38:08;;;;;;;;;6.00;4.33;;;;;;;;3569335;39;114118;-72
2021/06/02 16:40:34;;;;;;;;;5.00;4.00;;;;;;;;3568159;39;111847;-72
2021/06/02 16:43:00;;;;;;;;;6.00;5.00;;;;;;;;3569628;39;113435;-73
2021/06/02 16:45:27;;;;;;;;;4.00;4.00;;;;;;;;3568109;39;113839;-72
2021/06/02 16:47:53;;;;;;;;;6.00;5.33;;;;;;;;3569062;39;111776;-72
2021/06/02 16:50:22;;;;;;;;;5.33;3.33;;;;;;;;3568918;39;113356;-73
2021/06/02 16:52:51;;;;;;;;;5.00;5.00;;;;;;;;3568453;39;113886;-71
2021/06/02 16:55:18;;;;;;;;;5.00;5.00;;;;;;;;3567309;39;113173;-72
2021/06/02 16:57:44;;;;;;;;;4.33;4.33;;;;;;;;3567627;39;114253;-72
2021/06/02 17:00:12;;;;;;;;;5.00;5.00;;;;;;;;3568084;39;112848;-72
2021/06/02 17:02:39;;;;;;;;;5.33;4.33;;;;;;;;3569790;39;113953;-72
2021/06/02 17:05:05;;;;;;;;;7.67;6.33;;;;;;;;3567395;39;114084;-73
2021/06/02 17:07:32;;;;;;;;;6.00;5.00;;;;;;;;3568078;39;112582;-73
2021/06/02 17:10:00;;;;;;;;;6.67;6.33;;;;;;;;3570725;39;113445;-72
2021/06/02 17:12:26;;;;;;;;;8.67;7.00;;;;;;;;3567167;39;113879;-73
2021/06/02 17:14:52;;;;;;;;;19.25;16.25;;;;;;;;3568661;39;111980;-72
2021/06/02 17:17:19;;;;;;;;;16.25;14.00;;;;;;;;3566971;39;113993;-75
2021/06/02 17:19:46;;;;;;;;;15.00;12.25;;;;;;;;3568284;39;112379;-74
2021/06/02 17:22:13;;;;;;;;;14.25;13.50;;;;;;;;3566950;39;113261;-77
2021/06/02 17:24:39;;;;;;;;;10.00;7.00;;;;;;;;3567387;39;114497;-75
2021/06/02 17:27:07;;;;;;;;;8.67;8.33;;;;;;;;3568914;39;111869;-75
2021/06/02 17:29:35;;;;;;;;;8.00;7.50;;;;;;;;3567540;39;113049;-74
2021/06/02 17:32:01;;;;;;;;;8.00;8.00;;;;;;;;3568678;39;113735;-74
2021/06/02 17:34:28;;;;;;;;;8.00;8.00;;;;;;;;3568082;39;113894;-75
2021/06/02 17:36:55;;;;;;;;;8.25;8.25;;;;;;;;3569569;39;113310;-76
2021/06/02 17:39:23;;;;;;;;;9.75;7.25;;;;;;;;3568304;39;111805;-74
2021/06/02 17:41:49;;;;;;;;;11.75;8.25;;;;;;;;3569373;39;113264;-75
2021/06/02 17:44:17;;;;;;;;;8.50;8.00;;;;;;;;3569261;39;114133;-74
2021/06/02 17:46:45;;;;;;;;;7.25;7.25;;;;;;;;3570455;39;111899;-75
2021/06/02 17:49:12;;;;;;;;;8.25;8.00;;;;;;;;3569082;39;113414;-74
2021/06/02 17:51:40;;;;;;;;;6.00;6.00;;;;;;;;3570443;39;113774;-75
2021/06/02 17:54:06;;;;;;;;;5.50;5.50;;;;;;;;3569637;39;112294;-76
2021/06/02 17:56:33;;;;;;;;;5.50;5.50;;;;;;;;3571738;39;113271;-76
2021/06/02 17:58:59;;;;;;;;;6.50;6.50;;;;;;;;3572777;39;114732;-75
2021/06/02 18:01:28;;;;;;;;;6.50;5.50;;;;;;;;3569710;39;113237;-74
2021/06/02 18:03:55;;;;;;;;;6.00;6.00;;;;;;;;3569533;39;113954;-74
2021/06/02 18:06:21;;;;;;;;;10.50;10.25;;;;;;;;3570024;39;112288;-71
2021/06/02 18:08:49;;;;;;;;;6.25;6.25;;;;;;;;3572303;39;113673;-73
2021/06/02 18:11:15;;;;;;;;;9.50;9.25;;;;;;;;3572027;39;114004;-73
2021/06/02 18:13:41;;;;;;;;;10.00;9.00;;;;;;;;3570524;39;111873;-72
2021/06/02 18:16:10;;;;;;;;;5.50;5.50;;;;;;;;3569175;39;114263;-74
2021/06/02 18:18:42;;;;;;;;;6.75;6.75;;;;;;;;3568547;39;113913;-74
2021/06/02 18:21:11;;;;;;;;;5.75;5.75;;;;;;;;3571760;39;112146;-71
2021/06/02 18:23:39;;;;;;;;;8.00;6.50;;;;;;;;3570304;39;113767;-75
2021/06/02 18:26:05;;;;;;;;;6.00;6.00;;;;;;;;3569154;39;112958;-72
2021/06/02 18:28:34;;;;;;;;;6.50;6.50;;;;;;;;3570602;39;113242;-75
2021/06/02 18:31:00;;;;;;;;;7.50;7.50;;;;;;;;3568626;39;113867;-73
2021/06/02 18:33:26;;;;;;;;;8.50;8.00;;;;;;;;3569998;39;111888;-75
2021/06/02 18:35:54;;;;;;;;;10.50;9.00;;;;;;;;3569523;39;113368;-73
2021/06/02 18:38:20;;;;;;;;;7.00;7.00;;;;;;;;3568747;39;113993;-73
2021/06/02 18:40:46;;;;;;;;;7.25;7.25;;;;;;;;3569795;39;112269;-71
2021/06/02 18:43:14;;;;;;;;;6.50;6.50;;;;;;;;3569581;39;113348;-74
2021/06/02 18:45:40;;;;;;;;;7.00;7.00;;;;;;;;3570095;39;112146;-75
2021/06/02 18:48:06;;;;;;;;;7.00;6.25;;;;;;;;3566681;39;113104;-70
2021/06/02 18:50:32;;;;;;;;;8.00;8.00;;;;;;;;3569853;39;113768;-69
2021/06/02 18:53:00;;;;;;;;;6.00;5.25;;;;;;;;3568725;39;112214;-72
2021/06/02 18:55:29;;;;;;;;;7.75;6.75;;;;;;;;3568647;39;113837;-70
2021/06/02 18:57:56;;;;;;;;;7.50;6.75;;;;;;;;3569309;39;114136;-70
2021/06/02 19:00:22;;;;;;;;;8.00;7.00;;;;;;;;3568487;39;111910;-70
2021/06/02 19:02:48;;;;;;;;;7.00;7.00;;;;;;;;3565008;39;112388;-72
2021/06/02 19:05:16;;;;;;;;;9.00;8.00;;;;;;;;3566487;39;113148;-73
2021/06/02 19:07:48;;;;;;;;;6.00;6.00;;;;;;;;3570133;39;112939;-74
2021/06/02 19:10:16;;;;;;;;;8.75;7.25;;;;;;;;3567790;39;114004;-71
2021/06/02 19:12:42;;;;;;;;;10.00;9.00;;;;;;;;3570159;39;112169;-72
2021/06/02 19:15:08;;;;;;;;;8.00;8.00;;;;;;;;3567802;39;113389;-70
2021/06/02 19:17:36;;;;;;;;;11.00;10.00;;;;;;;;3568376;39;113989;-71
2021/06/02 19:20:02;;;;;;;;;13.75;11.75;;;;;;;;3568357;39;112437;-73
2021/06/02 19:22:28;;;;;;;;;11.00;11.00;;;;;;;;3570026;39;113975;-75
2021/06/02 19:24:55;;;;;;;;;10.75;10.00;;;;;;;;3568942;39;112912;-74
2021/06/02 19:27:23;;;;;;;;;12.00;10.75;;;;;;;;3569383;39;113609;-75
2021/06/02 19:29:49;;;;;;;;;13.25;12.00;;;;;;;;3567999;39;113876;-74
2021/06/02 19:32:16;;;;;;;;;13.75;13.00;;;;;;;;3567592;39;112476;-74
2021/06/02 19:34:43;;;;;;;;;10.75;9.00;;;;;;;;3570002;39;113487;-76
2021/06/02 19:37:09;;;;;;;;;12.50;12.00;;;;;;;;3568131;39;113918;-75
2021/06/02 19:39:37;;;;;;;;;9.75;9.75;;;;;;;;3570385;39;111872;-75
2021/06/02 19:42:03;;;;;;;;;8.50;7.25;;;;;;;;3568865;39;113513;-76
2021/06/02 19:44:31;;;;;;;;;7.75;7.00;;;;;;;;3569042;39;114143;-76
2021/06/02 19:46:58;;;;;;;;;10.75;9.75;;;;;;;;3573044;39;112319;-75
2021/06/02 19:49:24;;;;;;;;;9.00;9.00;;;;;;;;3569574;39;113835;-72
2021/06/02 19:51:50;;;;;;;;;9.25;9.25;;;;;;;;3567024;39;112110;-74
2021/06/02 19:54:16;;;;;;;;;8.00;8.00;;;;;;;;3566473;39;113350;-75
2021/06/02 19:56:43;;;;;;;;;8.25;7.75;;;;;;;;3569168;39;113923;-74
2021/06/02 19:59:09;;;;;;;;;7.25;6.00;;;;;;;;3568666;39;112169;-73
2021/06/02 20:01:36;;;;;;;;;8.75;8.00;;;;;;;;3567581;39;113291;-73
2021/06/02 20:04:02;;;;;;;;;8.75;7.25;;;;;;;;3568152;39;114373;-74
2021/06/02 20:06:30;;;;;;;;;10.00;9.00;;;;;;;;3569944;39;112034;-75
2021/06/02 20:08:56;;;;;;;;;7.00;7.00;;;;;;;;3572506;39;113360;-73
2021/06/02 20:11:22;;;;;;;;;8.00;7.00;;;;;;;;3567906;39;112141;-71
2021/06/02 20:13:48;;;;;;;;;8.75;7.00;;;;;;;;3568183;39;113324;-74
2021/06/02 20:16:15;;;;;;;;;6.75;6.75;;;;;;;;3562680;39;112975;-72
2021/06/02 20:18:42;;;;;;;;;9.75;9.00;;;;;;;;3568530;39;111941;-75
2021/06/02 20:21:08;;;;;;;;;10.00;7.50;;;;;;;;3569904;39;113551;-75
2021/06/02 20:23:39;;;;;;;;;7.00;5.50;;;;;;;;3567822;39;114072;-74
2021/06/02 20:26:05;;;;;;;;;7.00;7.00;;;;;;;;3568367;39;113277;-74
2021/06/02 20:28:37;;;;;;;;;9.25;9.25;;;;;;;;3568257;39;114456;-74
2021/06/02 20:33:45;;;;;;;;;7.50;7.00;;;;;;;;3550471;39;112457;-75
2021/06/02 20:36:11;;;;;;;;;8.75;8.75;;;;;;;;3568932;39;114125;-75
2021/06/02 20:38:37;;;;;;;;;8.25;7.50;;;;;;;;3568319;39;112119;-75
2021/06/02 20:41:03;;;;;;;;;7.00;7.00;;;;;;;;3569807;39;113784;-75
2021/06/02 20:43:29;;;;;;;;;7.25;7.00;;;;;;;;3567962;39;113809;-74
2021/06/02 20:45:55;;;;;;;;;8.25;8.25;;;;;;;;3569498;39;111733;-76
2021/06/02 20:48:21;;;;;;;;;7.75;7.75;;;;;;;;3568797;39;113289;-78
2021/06/02 20:50:49;;;;;;;;;9.00;8.00;;;;;;;;3568603;39;113806;-78
2021/06/02 20:53:15;;;;;;;;;10.00;7.00;;;;;;;;3571796;39;111825;-75
2021/06/02 20:55:41;;;;;;;;;9.00;9.00;;;;;;;;3568588;39;114118;-78
2021/06/02 20:58:07;;;;;;;;;8.00;7.00;;;;;;;;3569572;39;111742;-74
2021/06/02 21:00:33;;;;;;;;;8.75;8.00;;;;;;;;3568123;39;113265;-73
2021/06/02 21:02:59;;;;;;;;;11.50;9.75;;;;;;;;3567938;39;114092;-73
2021/06/02 21:05:26;;;;;;;;;8.50;8.00;;;;;;;;3569578;39;112106;-74
2021/06/02 21:07:53;;;;;;;;;9.25;8.75;;;;;;;;3569488;39;113394;-74
2021/06/02 21:10:19;;;;;;;;;7.50;7.50;;;;;;;;3569314;39;114102;-74
2021/06/02 21:12:46;;;;;;;;;7.75;7.50;;;;;;;;3567897;39;111856;-74
2021/06/02 21:15:12;;;;;;;;;8.50;8.00;;;;;;;;3567929;39;113222;-74
2021/06/02 21:17:39;;;;;;;;;9.25;7.25;;;;;;;;3570120;39;111797;-75
2021/06/02 21:20:06;;;;;;;;;11.75;8.50;;;;;;;;3567573;39;113599;-77
2021/06/02 21:22:32;;;;;;;;;8.00;8.00;;;;;;;;3567804;39;113760;-76
2021/06/02 21:25:00;;;;;;;;;12.25;10.00;;;;;;;;3569318;39;112066;-73
2021/06/02 21:27:27;;;;;;;;;11.25;11.00;;;;;;;;3568874;39;113295;-73
2021/06/02 21:29:53;;;;;;;;;9.75;6.25;;;;;;;;3567878;39;114289;-72
2021/06/02 21:32:19;;;;;;;;;7.00;5.00;;;;;;;;3570014;39;111939;-72
2021/06/02 21:34:45;;;;;;;;;5.00;5.00;;;;;;;;3569409;39;113112;-72
2021/06/02 21:37:11;;;;;;;;;6.00;4.50;;;;;;;;3570782;39;112857;-73
2021/06/02 21:39:37;;;;;;;;;6.00;6.00;;;;;;;;3568928;39;113302;-72
2021/06/02 21:42:05;;;;;;;;;8.75;8.00;;;;;;;;3570086;39;113873;-72
2021/06/02 21:44:32;;;;;;;;;6.75;6.00;;;;;;;;3568778;39;112562;-72
2021/06/02 21:46:58;;;;;;;;;7.50;6.50;;;;;;;;3570290;39;113319;-72
2021/06/02 21:49:24;;;;;;;;;6.75;5.50;;;;;;;;3569774;39;114228;-73
2021/06/02 21:51:50;;;;;;;;;7.00;4.00;;;;;;;;3574428;39;111698;-73
2021/06/02 21:54:16;;;;;;;;;8.25;7.25;;;;;;;;3569808;39;113449;-73
2021/06/02 21:56:42;;;;;;;;;7.00;7.00;;;;;;;;3571218;39;114082;-73
2021/06/02 21:59:10;;;;;;;;;6.75;4.50;;;;;;;;3570228;39;113293;-72
2021/06/02 22:01:38;;;;;;;;;6.75;5.50;;;;;;;;3568289;39;114310;-73
2021/06/02 22:04:04;;;;;;;;;5.75;4.50;;;;;;;;3570345;39;111862;-73
2021/06/02 22:06:30;;;;;;;;;5.75;5.25;;;;;;;;3569004;39;113350;-74
2021/06/02 22:08:56;;;;;;;;;7.00;7.00;;;;;;;;3566115;39;114958;-74
2021/06/02 22:11:22;;;;;;;;;6.00;6.00;;;;;;;;3569256;39;111896;-72
2021/06/02 22:13:48;;;;;;;;;8.25;4.00;;;;;;;;3569782;39;113697;-71
2021/06/02 22:16:16;;;;;;;;;5.00;5.00;;;;;;;;3569243;39;113867;-72
2021/06/02 22:18:42;;;;;;;;;6.00;6.00;;;;;;;;3571793;39;111855;-72
2021/06/02 22:21:08;;;;;;;;;9.50;8.00;;;;;;;;3569958;39;112769;-72
2021/06/02 22:23:34;;;;;;;;;9.50;7.75;;;;;;;;3568921;39;111971;-72
2021/06/02 22:26:00;;;;;;;;;6.25;6.00;;;;;;;;3570780;39;113490;-72
2021/06/02 22:28:27;;;;;;;;;7.50;7.50;;;;;;;;3568824;39;113823;-72
2021/06/02 22:30:53;;;;;;;;;6.25;6.00;;;;;;;;3570318;39;112255;-72
2021/06/02 22:33:21;;;;;;;;;7.75;6.50;;;;;;;;3569795;39;113662;-73
2021/06/02 22:35:47;;;;;;;;;8.00;6.75;;;;;;;;3569148;39;114016;-73
2021/06/02 22:38:13;;;;;;;;;6.00;5.75;;;;;;;;3569875;39;112347;-72
2021/06/02 22:40:40;;;;;;;;;7.00;7.00;;;;;;;;3571371;39;113324;-73
2021/06/02 22:43:06;;;;;;;;;8.00;7.00;;;;;;;;3568367;39;112628;-72
2021/06/02 22:45:32;;;;;;;;;9.25;9.25;;;;;;;;3568841;39;113290;-72
2021/06/02 22:47:58;;;;;;;;;7.25;7.25;;;;;;;;3569863;39;113982;-72
2021/06/02 22:50:26;;;;;;;;;8.00;8.00;;;;;;;;3569267;39;111915;-72
2021/06/02 22:52:53;;;;;;;;;8.00;7.75;;;;;;;;3566467;39;112344;-73
2021/06/02 22:55:19;;;;;;;;;7.25;7.25;;;;;;;;3569055;39;113767;-73
2021/06/02 22:57:46;;;;;;;;;11.00;10.00;;;;;;;;3568687;39;111871;-73
2021/06/02 23:00:13;;;;;;;;;7.75;7.25;;;;;;;;3568944;39;114273;-72
2021/06/02 23:02:39;;;;;;;;;11.50;10.75;;;;;;;;3572488;39;113891;-74
2021/06/02 23:05:06;;;;;;;;;11.50;10.50;;;;;;;;3567391;39;113529;-73
2021/06/02 23:07:34;;;;;;;;;10.75;10.25;;;;;;;;3569768;39;113969;-75
2021/06/02 23:10:00;;;;;;;;;10.00;8.75;;;;;;;;3567074;39;112240;-72
2021/06/02 23:12:26;;;;;;;;;9.00;8.25;;;;;;;;3568477;39;113367;-73
2021/06/02 23:14:52;;;;;;;;;7.25;7.25;;;;;;;;3571360;39;113915;-72
2021/06/02 23:17:18;;;;;;;;;7.75;7.00;;;;;;;;3570016;39;112033;-71
2021/06/02 23:19:44;;;;;;;;;9.25;8.00;;;;;;;;3570079;39;113460;-70
2021/06/02 23:22:10;;;;;;;;;7.00;7.00;;;;;;;;3566853;39;114036;-69
2021/06/02 23:24:38;;;;;;;;;10.00;8.75;;;;;;;;3572220;39;112799;-71
2021/06/02 23:27:04;;;;;;;;;7.00;7.00;;;;;;;;3568112;39;114297;-70
2021/06/02 23:29:33;;;;;;;;;9.75;8.25;;;;;;;;3568952;39;111753;-68
2021/06/02 23:32:01;;;;;;;;;9.25;8.00;;;;;;;;3570338;39;113481;-69
2021/06/02 23:34:27;;;;;;;;;9.25;7.50;;;;;;;;3568459;39;113794;-68
2021/06/02 23:36:54;;;;;;;;;7.00;7.00;;;;;;;;3569978;39;112072;-69
2021/06/02 23:39:20;;;;;;;;;7.00;7.00;;;;;;;;3565240;39;113316;-69
2021/06/02 23:41:47;;;;;;;;;8.00;6.00;;;;;;;;3568841;39;113789;-70
2021/06/02 23:44:13;;;;;;;;;8.00;8.00;;;;;;;;3569725;39;112708;-69
2021/06/02 23:46:39;;;;;;;;;8.00;8.00;;;;;;;;3569585;39;114185;-69
2021/06/02 23:49:05;;;;;;;;;7.75;7.75;;;;;;;;3570072;39;111941;-69
2021/06/02 23:51:31;;;;;;;;;9.75;8.75;;;;;;;;3570257;39;113733;-69
2021/06/02 23:53:57;;;;;;;;;8.25;8.00;;;;;;;;3571896;39;113652;-70
2021/06/02 23:56:24;;;;;;;;;7.00;7.00;;;;;;;;3569828;39;112250;-70
2021/06/02 23:58:51;;;;;;;;;6.50;6.50;;;;;;;;3570471;39;113183;-69
